sensor_id;sensor_type;location;lat;lon;timestamp;pressure;altitude;pressure_sealevel;temperature;humidity
28004;BME280;15330;51.234;6.754;2022-08-26T00:02:13;100858.78;;;25.29;46.48
28004;BME280;15330;51.234;6.754;2022-08-26T00:04:39;100851.34;;;25.24;46.65
28004;BME280;15330;51.234;6.754;2022-08-26T00:07:04;100835.28;;;25.06;46.70
28004;BME280;15330;51.234;6.754;2022-08-26T00:09:30;100843.28;;;25.39;46.20
28004;BME280;15330;51.234;6.754;2022-08-26T00:11:57;100856.63;;;25.31;46.32
28004;BME280;15330;51.234;6.754;2022-08-26T00:14:22;100855.22;;;25.28;46.96
28004;BME280;15330;51.234;6.754;2022-08-26T00:16:49;100857.75;;;25.35;46.96
28004;BME280;15330;51.234;6.754;2022-08-26T00:19:17;100865.41;;;25.33;46.95
28004;BME280;15330;51.234;6.754;2022-08-26T00:21:44;100855.84;;;25.08;47.84
28004;BME280;15330;51.234;6.754;2022-08-26T00:24:10;100856.94;;;25.07;47.89
28004;BME280;15330;51.234;6.754;2022-08-26T00:26:36;100863.25;;;25.08;48.09
28004;BME280;15330;51.234;6.754;2022-08-26T00:29:01;100863.06;;;24.71;49.63
28004;BME280;15330;51.234;6.754;2022-08-26T00:31:27;100869.53;;;24.86;49.18
28004;BME280;15330;51.234;6.754;2022-08-26T00:33:52;100872.78;;;24.83;49.65
28004;BME280;15330;51.234;6.754;2022-08-26T00:36:18;100885.09;;;24.81;50.21
28004;BME280;15330;51.234;6.754;2022-08-26T00:38:43;100880.31;;;24.93;49.72
28004;BME280;15330;51.234;6.754;2022-08-26T00:41:08;100889.53;;;24.87;50.45
28004;BME280;15330;51.234;6.754;2022-08-26T00:43:35;100886.09;;;24.75;51.22
28004;BME280;15330;51.234;6.754;2022-08-26T00:46:07;100895.50;;;24.84;51.09
28004;BME280;15330;51.234;6.754;2022-08-26T00:48:37;100884.38;;;24.69;52.40
28004;BME280;15330;51.234;6.754;2022-08-26T00:51:16;100885.25;;;24.52;53.46
28004;BME280;15330;51.234;6.754;2022-08-26T00:53:56;100888.69;;;24.43;53.86
28004;BME280;15330;51.234;6.754;2022-08-26T00:59:00;100902.59;;;24.41;55.10
28004;BME280;15330;51.234;6.754;2022-08-26T01:01:26;100898.56;;;24.10;56.24
28004;BME280;15330;51.234;6.754;2022-08-26T01:03:53;100902.72;;;24.30;56.18
28004;BME280;15330;51.234;6.754;2022-08-26T01:06:20;100897.59;;;24.55;56.08
28004;BME280;15330;51.234;6.754;2022-08-26T01:08:46;100899.81;;;24.36;56.75
28004;BME280;15330;51.234;6.754;2022-08-26T01:11:12;100893.06;;;24.44;56.94
28004;BME280;15330;51.234;6.754;2022-08-26T01:13:38;100904.81;;;24.23;57.60
28004;BME280;15330;51.234;6.754;2022-08-26T01:16:05;100900.84;;;23.97;59.12
28004;BME280;15330;51.234;6.754;2022-08-26T01:18:32;100898.84;;;23.92;59.44
28004;BME280;15330;51.234;6.754;2022-08-26T01:23:36;100905.72;;;24.28;58.42
28004;BME280;15330;51.234;6.754;2022-08-26T01:26:12;100903.69;;;24.40;57.89
28004;BME280;15330;51.234;6.754;2022-08-26T01:28:40;100901.81;;;24.07;59.38
28004;BME280;15330;51.234;6.754;2022-08-26T01:31:08;100905.38;;;24.08;59.69
28004;BME280;15330;51.234;6.754;2022-08-26T01:36:19;100904.03;;;24.10;59.51
28004;BME280;15330;51.234;6.754;2022-08-26T01:38:44;100911.34;;;24.05;60.38
28004;BME280;15330;51.234;6.754;2022-08-26T01:41:11;100915.88;;;24.16;59.77
28004;BME280;15330;51.234;6.754;2022-08-26T01:43:40;100908.94;;;24.08;60.00
28004;BME280;15330;51.234;6.754;2022-08-26T01:46:08;100920.78;;;23.97;60.85
28004;BME280;15330;51.234;6.754;2022-08-26T01:48:34;100924.69;;;24.18;59.91
28004;BME280;15330;51.234;6.754;2022-08-26T01:51:02;100922.59;;;23.75;61.33
28004;BME280;15330;51.234;6.754;2022-08-26T01:53:29;100932.22;;;23.94;61.45
28004;BME280;15330;51.234;6.754;2022-08-26T01:55:58;100926.91;;;24.04;60.93
28004;BME280;15330;51.234;6.754;2022-08-26T01:58:51;100937.75;;;23.66;62.20
28004;BME280;15330;51.234;6.754;2022-08-26T02:01:19;100927.66;;;24.00;61.27
28004;BME280;15330;51.234;6.754;2022-08-26T02:03:51;100935.78;;;23.95;61.42
28004;BME280;15330;51.234;6.754;2022-08-26T02:06:19;100932.53;;;23.81;61.59
28004;BME280;15330;51.234;6.754;2022-08-26T02:08:49;100940.13;;;23.62;62.41
28004;BME280;15330;51.234;6.754;2022-08-26T02:11:15;100942.88;;;23.62;63.08
28004;BME280;15330;51.234;6.754;2022-08-26T02:13:44;100936.16;;;23.53;63.33
28004;BME280;15330;51.234;6.754;2022-08-26T02:16:11;100945.91;;;23.37;63.96
28004;BME280;15330;51.234;6.754;2022-08-26T02:18:39;100951.50;;;23.14;64.98
28004;BME280;15330;51.234;6.754;2022-08-26T02:21:06;100946.88;;;23.15;65.09
28004;BME280;15330;51.234;6.754;2022-08-26T02:23:32;100958.81;;;23.25;64.93
28004;BME280;15330;51.234;6.754;2022-08-26T02:26:11;100959.84;;;23.36;64.56
28004;BME280;15330;51.234;6.754;2022-08-26T02:29:03;100956.72;;;23.44;64.38
28004;BME280;15330;51.234;6.754;2022-08-26T02:31:29;100970.06;;;23.57;64.16
28004;BME280;15330;51.234;6.754;2022-08-26T02:34:06;100969.88;;;23.07;65.98
28004;BME280;15330;51.234;6.754;2022-08-26T02:36:31;100959.84;;;23.36;64.75
28004;BME280;15330;51.234;6.754;2022-08-26T02:38:58;100955.13;;;23.20;65.51
28004;BME280;15330;51.234;6.754;2022-08-26T02:41:23;100968.81;;;23.08;66.22
28004;BME280;15330;51.234;6.754;2022-08-26T02:43:48;100953.22;;;22.92;66.98
28004;BME280;15330;51.234;6.754;2022-08-26T02:46:14;100959.75;;;23.19;65.87
28004;BME280;15330;51.234;6.754;2022-08-26T02:48:39;100962.44;;;23.31;65.51
28004;BME280;15330;51.234;6.754;2022-08-26T02:51:04;100952.69;;;23.06;66.38
28004;BME280;15330;51.234;6.754;2022-08-26T02:53:30;100952.31;;;23.43;65.19
28004;BME280;15330;51.234;6.754;2022-08-26T02:55:55;100955.63;;;23.45;64.99
28004;BME280;15330;51.234;6.754;2022-08-26T02:58:20;100955.81;;;22.87;67.39
28004;BME280;15330;51.234;6.754;2022-08-26T03:00:46;100960.63;;;23.08;66.80
28004;BME280;15330;51.234;6.754;2022-08-26T03:03:13;100966.16;;;23.25;66.85
28004;BME280;15330;51.234;6.754;2022-08-26T03:05:38;100961.00;;;23.40;65.61
28004;BME280;15330;51.234;6.754;2022-08-26T03:08:04;100960.44;;;23.26;66.53
28004;BME280;15330;51.234;6.754;2022-08-26T03:10:29;100959.91;;;23.13;67.49
28004;BME280;15330;51.234;6.754;2022-08-26T03:12:55;100956.94;;;23.42;66.71
28004;BME280;15330;51.234;6.754;2022-08-26T03:15:21;100957.59;;;23.61;65.41
28004;BME280;15330;51.234;6.754;2022-08-26T03:17:47;100957.44;;;23.39;66.67
28004;BME280;15330;51.234;6.754;2022-08-26T03:20:14;100956.34;;;23.40;66.40
28004;BME280;15330;51.234;6.754;2022-08-26T03:22:40;100964.78;;;23.39;66.89
28004;BME280;15330;51.234;6.754;2022-08-26T03:25:07;100961.34;;;23.15;67.97
28004;BME280;15330;51.234;6.754;2022-08-26T03:27:33;100961.16;;;23.33;67.21
28004;BME280;15330;51.234;6.754;2022-08-26T03:29:59;100964.38;;;23.47;66.55
28004;BME280;15330;51.234;6.754;2022-08-26T03:32:43;100971.06;;;23.39;66.83
28004;BME280;15330;51.234;6.754;2022-08-26T03:35:09;100953.25;;;23.20;67.80
28004;BME280;15330;51.234;6.754;2022-08-26T03:37:34;100962.28;;;23.37;66.99
28004;BME280;15330;51.234;6.754;2022-08-26T03:40:00;100961.81;;;23.12;68.18
28004;BME280;15330;51.234;6.754;2022-08-26T03:42:25;100957.19;;;23.41;67.40
28004;BME280;15330;51.234;6.754;2022-08-26T03:44:51;100961.66;;;23.47;66.73
28004;BME280;15330;51.234;6.754;2022-08-26T03:47:16;100964.78;;;23.51;66.84
28004;BME280;15330;51.234;6.754;2022-08-26T03:49:42;100968.69;;;23.15;68.66
28004;BME280;15330;51.234;6.754;2022-08-26T03:52:07;100965.69;;;22.76;69.73
28004;BME280;15330;51.234;6.754;2022-08-26T03:54:34;100968.59;;;22.98;68.93
28004;BME280;15330;51.234;6.754;2022-08-26T03:56:59;100971.53;;;23.08;68.37
28004;BME280;15330;51.234;6.754;2022-08-26T03:59:25;100973.78;;;23.11;68.54
28004;BME280;15330;51.234;6.754;2022-08-26T04:01:50;100973.66;;;23.18;68.18
28004;BME280;15330;51.234;6.754;2022-08-26T04:04:16;100971.06;;;23.11;68.34
28004;BME280;15330;51.234;6.754;2022-08-26T04:06:43;100971.34;;;23.26;67.92
28004;BME280;15330;51.234;6.754;2022-08-26T04:09:11;100972.25;;;23.15;68.34
28004;BME280;15330;51.234;6.754;2022-08-26T04:11:38;100979.09;;;22.78;69.42
28004;BME280;15330;51.234;6.754;2022-08-26T04:14:08;100980.28;;;22.82;69.61
28004;BME280;15330;51.234;6.754;2022-08-26T04:16:34;100971.38;;;22.63;70.16
28004;BME280;15330;51.234;6.754;2022-08-26T04:18:59;100976.09;;;22.91;69.34
28004;BME280;15330;51.234;6.754;2022-08-26T04:21:25;100979.31;;;22.88;69.47
28004;BME280;15330;51.234;6.754;2022-08-26T04:23:52;100981.09;;;22.82;69.48
28004;BME280;15330;51.234;6.754;2022-08-26T04:26:18;100978.22;;;23.00;68.92
28004;BME280;15330;51.234;6.754;2022-08-26T04:28:45;100979.28;;;22.99;68.46
28004;BME280;15330;51.234;6.754;2022-08-26T04:31:12;100979.97;;;23.06;68.36
28004;BME280;15330;51.234;6.754;2022-08-26T04:33:39;100981.72;;;23.24;67.56
28004;BME280;15330;51.234;6.754;2022-08-26T04:36:05;100979.53;;;22.98;68.81
28004;BME280;15330;51.234;6.754;2022-08-26T04:38:30;100973.78;;;23.11;68.16
28004;BME280;15330;51.234;6.754;2022-08-26T04:40:56;100986.16;;;23.02;68.44
28004;BME280;15330;51.234;6.754;2022-08-26T04:43:23;100985.28;;;23.25;67.69
28004;BME280;15330;51.234;6.754;2022-08-26T04:45:53;100981.38;;;23.09;68.09
28004;BME280;15330;51.234;6.754;2022-08-26T04:48:18;100985.94;;;23.32;67.43
28004;BME280;15330;51.234;6.754;2022-08-26T04:50:44;100979.97;;;23.06;68.75
28004;BME280;15330;51.234;6.754;2022-08-26T04:53:09;100985.91;;;23.15;67.98
28004;BME280;15330;51.234;6.754;2022-08-26T04:55:34;100986.69;;;23.16;67.63
28004;BME280;15330;51.234;6.754;2022-08-26T04:58:00;100994.25;;;22.74;69.59
28004;BME280;15330;51.234;6.754;2022-08-26T05:00:25;100987.09;;;23.08;68.58
28004;BME280;15330;51.234;6.754;2022-08-26T05:02:51;100990.41;;;23.10;68.11
28004;BME280;15330;51.234;6.754;2022-08-26T05:05:16;100993.03;;;23.56;66.97
28004;BME280;15330;51.234;6.754;2022-08-26T05:07:41;100993.03;;;23.04;68.46
28004;BME280;15330;51.234;6.754;2022-08-26T05:10:07;100993.94;;;23.22;67.72
28004;BME280;15330;51.234;6.754;2022-08-26T05:12:33;100996.03;;;23.31;67.64
28004;BME280;15330;51.234;6.754;2022-08-26T05:14:59;100994.19;;;23.20;67.85
28004;BME280;15330;51.234;6.754;2022-08-26T05:17:25;100997.75;;;23.09;68.53
28004;BME280;15330;51.234;6.754;2022-08-26T05:19:51;101000.44;;;23.32;67.34
28004;BME280;15330;51.234;6.754;2022-08-26T05:22:17;100996.84;;;23.43;67.07
28004;BME280;15330;51.234;6.754;2022-08-26T05:24:42;100997.13;;;23.59;66.58
28004;BME280;15330;51.234;6.754;2022-08-26T05:27:08;100997.06;;;23.54;66.59
28004;BME280;15330;51.234;6.754;2022-08-26T05:29:34;100995.75;;;23.56;66.43
28004;BME280;15330;51.234;6.754;2022-08-26T05:31:59;100993.47;;;23.25;67.37
28004;BME280;15330;51.234;6.754;2022-08-26T05:34:26;100997.81;;;22.86;68.80
28004;BME280;15330;51.234;6.754;2022-08-26T05:36:51;101000.63;;;23.14;67.89
28004;BME280;15330;51.234;6.754;2022-08-26T05:39:17;100995.84;;;23.21;67.79
28004;BME280;15330;51.234;6.754;2022-08-26T05:41:43;100999.03;;;23.18;67.66
28004;BME280;15330;51.234;6.754;2022-08-26T05:44:10;101002.38;;;23.20;67.82
28004;BME280;15330;51.234;6.754;2022-08-26T05:46:37;100997.66;;;23.44;66.80
28004;BME280;15330;51.234;6.754;2022-08-26T05:49:04;101000.97;;;23.06;67.87
28004;BME280;15330;51.234;6.754;2022-08-26T05:51:29;101003.97;;;23.04;68.11
28004;BME280;15330;51.234;6.754;2022-08-26T05:53:55;101007.13;;;23.13;67.80
28004;BME280;15330;51.234;6.754;2022-08-26T05:56:21;101011.22;;;23.27;67.05
28004;BME280;15330;51.234;6.754;2022-08-26T05:58:52;101003.69;;;23.06;67.72
28004;BME280;15330;51.234;6.754;2022-08-26T06:01:20;101015.88;;;23.27;67.23
28004;BME280;15330;51.234;6.754;2022-08-26T06:03:48;101004.13;;;23.26;67.29
28004;BME280;15330;51.234;6.754;2022-08-26T06:06:19;101021.41;;;23.43;66.43
28004;BME280;15330;51.234;6.754;2022-08-26T06:08:45;101015.75;;;23.33;66.90
28004;BME280;15330;51.234;6.754;2022-08-26T06:11:13;101019.78;;;23.31;66.75
28004;BME280;15330;51.234;6.754;2022-08-26T06:13:39;101021.50;;;23.09;67.45
28004;BME280;15330;51.234;6.754;2022-08-26T06:16:08;101019.25;;;23.05;67.44
28004;BME280;15330;51.234;6.754;2022-08-26T06:18:39;101012.81;;;23.23;67.04
28004;BME280;15330;51.234;6.754;2022-08-26T06:21:25;101014.19;;;23.26;66.46
28004;BME280;15330;51.234;6.754;2022-08-26T06:23:53;101021.41;;;23.43;65.80
28004;BME280;15330;51.234;6.754;2022-08-26T06:26:38;101017.38;;;23.46;66.05
28004;BME280;15330;51.234;6.754;2022-08-26T06:29:05;101027.56;;;22.99;67.41
28004;BME280;15330;51.234;6.754;2022-08-26T06:31:32;101023.81;;;23.28;66.47
28004;BME280;15330;51.234;6.754;2022-08-26T06:33:57;101027.16;;;23.19;66.80
28004;BME280;15330;51.234;6.754;2022-08-26T06:36:26;101029.88;;;23.30;66.17
28004;BME280;15330;51.234;6.754;2022-08-26T06:38:53;101039.03;;;23.24;66.46
28004;BME280;15330;51.234;6.754;2022-08-26T06:41:21;101034.53;;;23.06;66.96
28004;BME280;15330;51.234;6.754;2022-08-26T06:43:47;101037.03;;;22.96;67.12
28004;BME280;15330;51.234;6.754;2022-08-26T06:46:14;101033.72;;;23.06;66.81
28004;BME280;15330;51.234;6.754;2022-08-26T06:48:41;101030.44;;;23.44;65.68
28004;BME280;15330;51.234;6.754;2022-08-26T06:53:36;101039.09;;;22.78;68.01
28004;BME280;15330;51.234;6.754;2022-08-26T06:56:04;101043.09;;;22.98;67.06
28004;BME280;15330;51.234;6.754;2022-08-26T06:58:31;101044.72;;;23.23;66.25
28004;BME280;15330;51.234;6.754;2022-08-26T07:00:56;101049.50;;;22.57;68.52
28004;BME280;15330;51.234;6.754;2022-08-26T07:03:22;101043.44;;;22.67;68.06
28004;BME280;15330;51.234;6.754;2022-08-26T07:05:47;101045.81;;;23.10;66.88
28004;BME280;15330;51.234;6.754;2022-08-26T07:08:13;101040.28;;;22.82;67.58
28004;BME280;15330;51.234;6.754;2022-08-26T07:10:38;101049.75;;;23.02;67.17
28004;BME280;15330;51.234;6.754;2022-08-26T07:13:04;101044.97;;;23.21;66.59
28004;BME280;15330;51.234;6.754;2022-08-26T07:15:30;101048.47;;;22.82;67.53
28004;BME280;15330;51.234;6.754;2022-08-26T07:17:55;101043.22;;;23.15;66.72
28004;BME280;15330;51.234;6.754;2022-08-26T07:20:21;101048.31;;;23.12;66.60
28004;BME280;15330;51.234;6.754;2022-08-26T07:22:46;101058.53;;;22.93;66.94
28004;BME280;15330;51.234;6.754;2022-08-26T07:25:12;101055.91;;;23.10;66.31
28004;BME280;15330;51.234;6.754;2022-08-26T07:27:37;101056.88;;;23.03;66.22
28004;BME280;15330;51.234;6.754;2022-08-26T07:30:04;101061.97;;;23.00;66.42
28004;BME280;15330;51.234;6.754;2022-08-26T07:32:30;101068.97;;;22.73;67.66
28004;BME280;15330;51.234;6.754;2022-08-26T07:34:57;101056.75;;;22.87;66.79
28004;BME280;15330;51.234;6.754;2022-08-26T07:37:22;101058.13;;;23.24;65.97
28004;BME280;15330;51.234;6.754;2022-08-26T07:39:48;101065.03;;;23.15;65.84
28004;BME280;15330;51.234;6.754;2022-08-26T07:42:16;101074.97;;;23.33;65.26
28004;BME280;15330;51.234;6.754;2022-08-26T07:44:42;101078.09;;;23.01;66.16
28004;BME280;15330;51.234;6.754;2022-08-26T07:47:09;101078.47;;;22.93;66.39
28004;BME280;15330;51.234;6.754;2022-08-26T07:49:35;101081.66;;;22.90;66.47
28004;BME280;15330;51.234;6.754;2022-08-26T07:52:02;101079.16;;;23.12;65.76
28004;BME280;15330;51.234;6.754;2022-08-26T07:54:28;101083.31;;;23.15;65.42
28004;BME280;15330;51.234;6.754;2022-08-26T07:56:54;101084.09;;;23.27;65.22
28004;BME280;15330;51.234;6.754;2022-08-26T07:59:19;101084.50;;;22.95;66.12
28004;BME280;15330;51.234;6.754;2022-08-26T08:01:45;101085.09;;;22.97;66.22
28004;BME280;15330;51.234;6.754;2022-08-26T08:04:14;101094.09;;;22.86;66.40
28004;BME280;15330;51.234;6.754;2022-08-26T08:06:41;101091.75;;;22.90;66.47
28004;BME280;15330;51.234;6.754;2022-08-26T08:09:07;101090.31;;;23.22;65.18
28004;BME280;15330;51.234;6.754;2022-08-26T08:11:33;101083.19;;;23.10;65.66
28004;BME280;15330;51.234;6.754;2022-08-26T08:13:58;101093.28;;;23.09;65.30
28004;BME280;15330;51.234;6.754;2022-08-26T08:16:28;101094.09;;;23.10;65.36
28004;BME280;15330;51.234;6.754;2022-08-26T08:18:54;101086.34;;;23.41;64.49
28004;BME280;15330;51.234;6.754;2022-08-26T08:21:21;101088.38;;;23.34;64.28
28004;BME280;15330;51.234;6.754;2022-08-26T08:23:46;101092.44;;;22.97;65.48
28004;BME280;15330;51.234;6.754;2022-08-26T08:26:11;101097.06;;;22.85;65.61
28004;BME280;15330;51.234;6.754;2022-08-26T08:28:37;101096.13;;;22.91;65.71
28004;BME280;15330;51.234;6.754;2022-08-26T08:31:03;101097.31;;;23.06;65.30
28004;BME280;15330;51.234;6.754;2022-08-26T08:33:30;101101.09;;;23.17;64.85
28004;BME280;15330;51.234;6.754;2022-08-26T08:35:57;101097.66;;;23.22;64.54
28004;BME280;15330;51.234;6.754;2022-08-26T08:38:22;101102.44;;;23.03;65.12
28004;BME280;15330;51.234;6.754;2022-08-26T08:40:49;101110.47;;;22.98;65.48
28004;BME280;15330;51.234;6.754;2022-08-26T08:43:37;101103.97;;;22.99;65.10
28004;BME280;15330;51.234;6.754;2022-08-26T08:46:13;101107.28;;;23.01;65.38
28004;BME280;15330;51.234;6.754;2022-08-26T08:48:46;101098.97;;;23.19;64.46
28004;BME280;15330;51.234;6.754;2022-08-26T08:51:20;101098.59;;;23.27;64.51
28004;BME280;15330;51.234;6.754;2022-08-26T08:53:52;101094.75;;;23.40;64.18
28004;BME280;15330;51.234;6.754;2022-08-26T08:56:23;101109.34;;;22.64;66.28
28004;BME280;15330;51.234;6.754;2022-08-26T09:04:16;101087.34;;;23.12;64.20
28004;BME280;15330;51.234;6.754;2022-08-26T09:06:46;101113.44;;;22.96;64.78
28004;BME280;15330;51.234;6.754;2022-08-26T09:09:21;101101.47;;;22.86;65.05
28004;BME280;15330;51.234;6.754;2022-08-26T09:11:47;101104.44;;;23.08;64.90
28004;BME280;15330;51.234;6.754;2022-08-26T09:14:13;101095.59;;;23.40;63.51
28004;BME280;15330;51.234;6.754;2022-08-26T09:16:45;101103.81;;;23.17;63.91
28004;BME280;15330;51.234;6.754;2022-08-26T09:19:20;101105.47;;;23.18;64.21
28004;BME280;15330;51.234;6.754;2022-08-26T09:21:59;101103.09;;;23.33;63.54
28004;BME280;15330;51.234;6.754;2022-08-26T09:24:26;101106.38;;;23.59;62.89
28004;BME280;15330;51.234;6.754;2022-08-26T09:26:53;101108.38;;;23.75;61.97
28004;BME280;15330;51.234;6.754;2022-08-26T09:29:39;101106.59;;;23.69;62.23
28004;BME280;15330;51.234;6.754;2022-08-26T09:35:02;101113.88;;;23.52;63.01
28004;BME280;15330;51.234;6.754;2022-08-26T09:37:46;101118.28;;;23.53;63.07
28004;BME280;15330;51.234;6.754;2022-08-26T09:40:29;101123.66;;;23.01;64.18
28004;BME280;15330;51.234;6.754;2022-08-26T09:43:17;101115.56;;;23.06;64.28
28004;BME280;15330;51.234;6.754;2022-08-26T09:45:52;101113.44;;;23.08;64.36
28004;BME280;15330;51.234;6.754;2022-08-26T09:48:24;101114.47;;;23.42;62.96
28004;BME280;15330;51.234;6.754;2022-08-26T09:51:00;101110.09;;;23.29;63.39
28004;BME280;15330;51.234;6.754;2022-08-26T09:53:29;101113.19;;;23.21;63.61
28004;BME280;15330;51.234;6.754;2022-08-26T09:58:42;101108.09;;;23.25;63.51
28004;BME280;15330;51.234;6.754;2022-08-26T10:01:14;101114.28;;;22.85;64.74
28004;BME280;15330;51.234;6.754;2022-08-26T10:03:40;101106.44;;;23.12;64.06
28004;BME280;15330;51.234;6.754;2022-08-26T10:06:27;101111.84;;;23.47;63.10
28004;BME280;15330;51.234;6.754;2022-08-26T10:08:56;101103.78;;;23.40;62.81
28004;BME280;15330;51.234;6.754;2022-08-26T10:11:24;101096.38;;;23.76;61.82
28004;BME280;15330;51.234;6.754;2022-08-26T10:13:57;101104.53;;;23.88;61.72
28004;BME280;15330;51.234;6.754;2022-08-26T10:16:49;101103.38;;;23.72;61.83
28004;BME280;15330;51.234;6.754;2022-08-26T10:19:23;101099.72;;;23.95;61.27
28004;BME280;15330;51.234;6.754;2022-08-26T10:22:03;101112.22;;;23.91;61.34
28004;BME280;15330;51.234;6.754;2022-08-26T10:24:37;101095.09;;;23.95;61.15
28004;BME280;15330;51.234;6.754;2022-08-26T10:27:15;101098.50;;;24.02;60.58
28004;BME280;15330;51.234;6.754;2022-08-26T10:29:49;101090.00;;;24.15;60.29
28004;BME280;15330;51.234;6.754;2022-08-26T10:32:41;101091.59;;;23.83;61.20
28004;BME280;15330;51.234;6.754;2022-08-26T10:35:10;101088.81;;;23.95;60.86
28004;BME280;15330;51.234;6.754;2022-08-26T10:38:01;101095.09;;;23.95;61.17
28004;BME280;15330;51.234;6.754;2022-08-26T10:40:45;101102.69;;;23.65;61.74
28004;BME280;15330;51.234;6.754;2022-08-26T10:43:39;101101.50;;;23.61;61.61
28004;BME280;15330;51.234;6.754;2022-08-26T10:46:11;101097.25;;;23.93;60.52
28004;BME280;15330;51.234;6.754;2022-08-26T10:49:15;101093.31;;;24.18;59.60
28004;BME280;15330;51.234;6.754;2022-08-26T10:51:37;101086.09;;;24.11;59.46
28004;BME280;15330;51.234;6.754;2022-08-26T10:57:01;101089.31;;;24.54;58.56
28004;BME280;15330;51.234;6.754;2022-08-26T10:59:51;101081.91;;;24.87;57.96
28004;BME280;15330;51.234;6.754;2022-08-26T11:02:25;101094.53;;;24.55;58.26
28004;BME280;15330;51.234;6.754;2022-08-26T11:04:58;101094.47;;;24.50;58.72
28004;BME280;15330;51.234;6.754;2022-08-26T11:07:35;101098.16;;;24.61;58.34
28004;BME280;15330;51.234;6.754;2022-08-26T11:22:52;101078.00;;;24.83;57.90
28004;BME280;15330;51.234;6.754;2022-08-26T11:25:19;101069.03;;;24.49;58.40
28004;BME280;15330;51.234;6.754;2022-08-26T11:40:39;101074.63;;;24.43;58.58
28004;BME280;15330;51.234;6.754;2022-08-26T11:43:20;101067.38;;;24.20;59.28
28004;BME280;15330;51.234;6.754;2022-08-26T11:46:01;101071.31;;;24.41;58.71
28004;BME280;15330;51.234;6.754;2022-08-26T11:48:31;101072.59;;;24.50;58.89
28004;BME280;15330;51.234;6.754;2022-08-26T11:51:20;101071.00;;;24.37;59.01
28004;BME280;15330;51.234;6.754;2022-08-26T11:53:45;101079.06;;;24.15;59.44
28004;BME280;15330;51.234;6.754;2022-08-26T11:56:18;101073.16;;;24.52;58.80
28004;BME280;15330;51.234;6.754;2022-08-26T11:58:48;101074.44;;;24.16;59.32
28004;BME280;15330;51.234;6.754;2022-08-26T12:01:27;101077.41;;;24.14;59.18
28004;BME280;15330;51.234;6.754;2022-08-26T12:03:54;101078.78;;;24.29;59.01
28004;BME280;15330;51.234;6.754;2022-08-26T12:06:46;101066.69;;;24.25;58.41
28004;BME280;15330;51.234;6.754;2022-08-26T12:09:20;101073.22;;;24.24;58.77
28004;BME280;15330;51.234;6.754;2022-08-26T12:11:46;101075.78;;;24.64;57.65
28004;BME280;15330;51.234;6.754;2022-08-26T12:14:23;101076.22;;;24.56;57.48
28004;BME280;15330;51.234;6.754;2022-08-26T12:16:50;101081.13;;;24.37;57.85
28004;BME280;15330;51.234;6.754;2022-08-26T12:19:27;101080.88;;;24.55;57.28
28004;BME280;15330;51.234;6.754;2022-08-26T12:22:03;101082.03;;;24.59;56.86
28004;BME280;15330;51.234;6.754;2022-08-26T12:24:29;101077.63;;;24.25;58.25
28004;BME280;15330;51.234;6.754;2022-08-26T12:27:09;101079.63;;;24.29;58.34
28004;BME280;15330;51.234;6.754;2022-08-26T12:29:37;101067.69;;;24.52;57.30
28004;BME280;15330;51.234;6.754;2022-08-26T12:32:15;101077.78;;;24.51;57.37
28004;BME280;15330;51.234;6.754;2022-08-26T12:34:43;101077.75;;;24.85;57.04
28004;BME280;15330;51.234;6.754;2022-08-26T12:37:13;101081.56;;;24.84;56.84
28004;BME280;15330;51.234;6.754;2022-08-26T12:39:41;101077.28;;;24.88;56.77
28004;BME280;15330;51.234;6.754;2022-08-26T12:44:47;101080.94;;;24.94;56.43
28004;BME280;15330;51.234;6.754;2022-08-26T12:47:40;101083.50;;;25.00;55.84
28004;BME280;15330;51.234;6.754;2022-08-26T12:50:18;101086.00;;;24.51;56.98
28004;BME280;15330;51.234;6.754;2022-08-26T12:53:04;101083.69;;;24.60;56.99
28004;BME280;15330;51.234;6.754;2022-08-26T12:55:42;101089.91;;;24.56;57.06
28004;BME280;15330;51.234;6.754;2022-08-26T12:58:30;101080.88;;;24.55;57.15
28004;BME280;15330;51.234;6.754;2022-08-26T13:14:20;101076.47;;;24.09;61.09
28004;BME280;15330;51.234;6.754;2022-08-26T13:16:46;101064.78;;;23.68;62.14
28004;BME280;15330;51.234;6.754;2022-08-26T13:19:14;101071.72;;;23.88;61.81
28004;BME280;15330;51.234;6.754;2022-08-26T13:21:42;101076.97;;;24.06;61.25
28004;BME280;15330;51.234;6.754;2022-08-26T13:24:11;101063.91;;;24.08;61.31
28004;BME280;15330;51.234;6.754;2022-08-26T13:26:39;101074.19;;;23.89;62.26
28004;BME280;15330;51.234;6.754;2022-08-26T13:29:05;101070.34;;;24.02;61.67
28004;BME280;15330;51.234;6.754;2022-08-26T13:31:31;101071.81;;;23.64;62.81
28004;BME280;15330;51.234;6.754;2022-08-26T13:33:59;101073.81;;;23.69;62.84
28004;BME280;15330;51.234;6.754;2022-08-26T13:36:24;101072.53;;;23.60;63.29
28004;BME280;15330;51.234;6.754;2022-08-26T13:38:50;101071.25;;;23.39;63.93
28004;BME280;15330;51.234;6.754;2022-08-26T13:41:15;101066.31;;;23.36;64.00
28004;BME280;15330;51.234;6.754;2022-08-26T13:43:41;101069.97;;;23.30;64.34
28004;BME280;15330;51.234;6.754;2022-08-26T13:46:06;101070.78;;;23.42;63.99
28004;BME280;15330;51.234;6.754;2022-08-26T13:48:32;101066.41;;;23.29;64.41
28004;BME280;15330;51.234;6.754;2022-08-26T13:50:59;101066.03;;;23.37;64.48
28004;BME280;15330;51.234;6.754;2022-08-26T13:53:27;101058.00;;;23.31;64.43
28004;BME280;15330;51.234;6.754;2022-08-26T13:55:55;101066.56;;;23.23;65.02
28004;BME280;15330;51.234;6.754;2022-08-26T13:58:21;101058.69;;;23.26;64.62
28004;BME280;15330;51.234;6.754;2022-08-26T14:00:46;101062.59;;;23.42;64.06
28004;BME280;15330;51.234;6.754;2022-08-26T14:03:12;101068.91;;;23.31;64.58
28004;BME280;15330;51.234;6.754;2022-08-26T14:05:38;101067.03;;;23.20;64.61
28004;BME280;15330;51.234;6.754;2022-08-26T14:08:03;101058.47;;;23.28;64.42